Skip Navigation LinksHome page > Weather > Current weather Skip Navigation Links

Current Weather

Ronald Reagan Washington National, Washington

For information only: do not use for flight planning or navigation.
Latest weather
Observation time Wednesday, March 4, 2015 10:52 AM EST
Local time Wednesday, March 4, 2015 11:42 AM EST
Flight conditions Visual Meteorological Conditions
Winds
Wind direction South (180°)
Wind speed 3 mph
Visibility 6 mi.
Present weather haze
Sky condition
Ceiling 7,000 ft. overcast
Cloud layer overcast 7,000 ft.
Temperature 45°F
Dewpoint 40°F
Altimeter 29.93 in.Hg
Precipitation
Rain ended 9:54 AM
Rain began 10:35 AM
Rain ended 10:49 AM
Precipitation last hour trace
Derived measurements
Relative humidity 82%
Wind chill 44°F
Density altitude -811 ft.
Sea-level pressure 29.93 in.Hg
Remarks
Automated weather observing station with precipitation discriminator.
METAR KDCA 041552Z 18003KT 6SM HZ OVC070 07/04 A2993 RMK AO2 RAE1454B35E49 SLP136 P0000 T00720044

Settings

Location code

InnerDrive.Weather 4.0.5505.0 Release CLR 4.0.30319.34014
Copyright ©2015 Inner Drive Technology. All rights reserved. Portions Copyright ©1986-2015 David Braverman.

Find weather

Site navigation


Skip Navigation Links

Place info

Page info

PayPal - The safer, easier way to pay online!

Return home.

Copyright ©2015 Inner Drive Technology. Purveyors of fine, hand-crafted computer software. Page printed 2015-03-04T16:42:25 UTC.